createdAt,value
2022-08-10T00:01:55.843Z,1.27
2022-08-10T00:04:24.374Z,1.27
2022-08-10T00:06:56.183Z,0.93
2022-08-10T00:09:24.048Z,1.00
2022-08-10T00:11:52.015Z,1.17
2022-08-10T00:14:19.243Z,1.08
2022-08-10T00:16:46.715Z,1.48
2022-08-10T00:19:17.274Z,1.02
2022-08-10T00:21:45.919Z,1.48
2022-08-10T00:24:13.319Z,1.27
2022-08-10T00:27:50.161Z,1.10
2022-08-10T00:29:27.526Z,1.38
2022-08-10T00:31:58.945Z,1.38
2022-08-10T00:34:32.986Z,1.42
2022-08-10T00:37:01.245Z,1.30
2022-08-10T00:39:29.758Z,1.25
2022-08-10T00:42:02.007Z,0.93
2022-08-10T00:44:37.929Z,1.17
2022-08-10T00:47:07.318Z,1.58
2022-08-10T00:49:48.335Z,1.20
2022-08-10T00:52:18.375Z,0.95
2022-08-10T00:54:47.165Z,1.40
2022-08-10T00:57:18.412Z,1.00
2022-08-10T00:59:59.021Z,1.52
2022-08-10T01:02:29.435Z,1.33
2022-08-10T01:05:01.972Z,1.33
2022-08-10T01:07:49.407Z,1.30
2022-08-10T01:10:40.700Z,1.20
2022-08-10T01:13:17.695Z,1.00
2022-08-10T01:16:14.002Z,1.42
2022-08-10T01:19:00.787Z,1.40
2022-08-10T01:21:59.801Z,1.13
2022-08-10T01:24:59.845Z,1.58
2022-08-10T01:27:27.443Z,1.20
2022-08-10T01:30:09.716Z,1.30
2022-08-10T01:33:00.467Z,1.35
2022-08-10T01:35:36.359Z,1.60
2022-08-10T01:38:16.920Z,1.17
2022-08-10T01:40:52.867Z,1.60
2022-08-10T01:43:21.736Z,1.33
2022-08-10T01:45:59.520Z,1.58
2022-08-10T01:48:43.983Z,1.85
2022-08-10T01:51:32.812Z,1.38
2022-08-10T01:54:12.616Z,1.38
2022-08-10T01:56:44.287Z,1.30
2022-08-10T01:59:19.568Z,1.30
2022-08-10T02:01:52.655Z,1.42
2022-08-10T02:04:21.489Z,1.60
2022-08-10T02:06:59.019Z,1.40
2022-08-10T02:09:42.796Z,1.67
2022-08-10T02:12:14.241Z,1.45
2022-08-10T02:14:46.608Z,1.45
2022-08-10T02:18:00.112Z,1.30
2022-08-10T02:20:11.205Z,1.98
2022-08-10T02:22:40.265Z,1.42
2022-08-10T02:25:08.917Z,1.65
2022-08-10T02:27:37.028Z,1.77
2022-08-10T02:30:07.160Z,1.65
2022-08-10T02:32:38.802Z,2.10
2022-08-10T02:35:15.547Z,3.03
2022-08-10T02:37:53.768Z,3.58
2022-08-10T02:45:00.820Z,2.38
2022-08-10T02:45:20.715Z,2.13
2022-08-10T02:49:02.075Z,3.08
2022-08-10T02:52:07.709Z,2.72
2022-08-10T02:54:56.401Z,2.15
2022-08-10T02:58:16.708Z,2.13
2022-08-10T03:00:28.351Z,2.20
2022-08-10T03:03:04.612Z,1.83
2022-08-10T03:05:32.988Z,2.22
2022-08-10T03:08:07.227Z,2.97
2022-08-10T03:10:43.421Z,2.15
2022-08-10T03:13:12.436Z,2.58
2022-08-10T03:15:40.525Z,3.00
2022-08-10T03:18:09.327Z,2.42
2022-08-10T03:20:40.230Z,2.22
2022-08-10T03:23:15.058Z,2.60
2022-08-10T03:25:53.548Z,2.92
2022-08-10T03:28:27.805Z,2.92
2022-08-10T03:30:57.270Z,2.78
2022-08-10T03:33:29.712Z,2.75
2022-08-10T03:36:42.778Z,2.97
2022-08-10T03:38:48.600Z,2.75
2022-08-10T03:41:16.810Z,3.45
2022-08-10T03:43:47.831Z,3.45
2022-08-10T03:46:18.448Z,3.42
2022-08-10T03:48:49.927Z,3.13
2022-08-10T03:51:22.694Z,3.30
2022-08-10T03:54:05.627Z,3.53
2022-08-10T03:56:37.436Z,3.15
2022-08-10T03:59:08.391Z,3.60
2022-08-10T04:02:44.992Z,3.85
2022-08-10T04:04:27.323Z,4.20
2022-08-10T04:06:58.690Z,4.32
2022-08-10T04:09:43.292Z,4.47
2022-08-10T04:12:25.560Z,4.30
2022-08-10T04:14:53.899Z,3.83
2022-08-10T04:18:01.384Z,3.85
2022-08-10T04:20:22.880Z,4.00
2022-08-10T04:22:59.568Z,4.25
2022-08-10T04:25:27.857Z,3.95
2022-08-10T04:27:58.907Z,3.90
2022-08-10T04:30:29.168Z,3.78
2022-08-10T04:33:02.176Z,5.75
2022-08-10T04:35:31.952Z,4.40
2022-08-10T04:38:00.574Z,4.45
2022-08-10T04:40:29.902Z,4.85
2022-08-10T04:43:04.529Z,5.18
2022-08-10T04:45:48.538Z,5.80
2022-08-10T04:48:40.982Z,4.88
2022-08-10T04:51:17.060Z,5.43
2022-08-10T04:54:04.559Z,4.55
2022-08-10T04:56:36.485Z,4.97
2022-08-10T04:59:05.847Z,4.97
2022-08-10T05:02:22.003Z,4.95
2022-08-10T05:04:36.395Z,5.32
2022-08-10T05:07:16.959Z,5.20
2022-08-10T05:10:05.007Z,5.65
2022-08-10T05:12:39.160Z,5.47
2022-08-10T05:15:07.719Z,5.50
2022-08-10T05:17:37.727Z,6.05
2022-08-10T05:20:07.769Z,6.00
2022-08-10T05:22:39.686Z,5.78
2022-08-10T05:25:15.068Z,5.97
2022-08-10T05:27:43.271Z,6.20
2022-08-10T05:30:13.651Z,5.90
2022-08-10T05:32:57.639Z,6.10
2022-08-10T05:35:51.824Z,4.78
2022-08-10T05:38:17.663Z,5.22
2022-08-10T05:40:47.214Z,6.22
2022-08-10T05:43:21.348Z,6.40
2022-08-10T05:46:17.573Z,6.25
2022-08-10T05:48:56.193Z,5.97
2022-08-10T05:51:27.208Z,5.53
2022-08-10T05:54:03.253Z,6.18
2022-08-10T05:56:53.390Z,6.75
2022-08-10T06:00:34.658Z,6.32
2022-08-10T06:02:33.485Z,6.38
2022-08-10T06:05:17.309Z,5.88
2022-08-10T06:07:49.129Z,6.20
2022-08-10T06:10:31.032Z,5.72
2022-08-10T06:13:30.814Z,6.32
2022-08-10T06:16:07.357Z,6.03
2022-08-10T06:18:38.932Z,6.43
2022-08-10T06:21:09.576Z,4.95
2022-08-10T06:23:39.454Z,5.55
2022-08-10T06:26:11.935Z,5.82
2022-08-10T06:31:47.163Z,5.15
2022-08-10T06:34:21.687Z,4.95
2022-08-10T06:36:50.206Z,6.13
2022-08-10T06:39:32.949Z,5.90
2022-08-10T06:42:29.459Z,4.97
2022-08-10T06:45:05.817Z,5.05
2022-08-10T06:47:48.925Z,6.07
2022-08-10T06:50:44.500Z,4.97
2022-08-10T06:53:21.563Z,5.32
2022-08-10T06:55:57.280Z,5.25
2022-08-10T06:58:32.139Z,4.93
2022-08-10T07:01:05.741Z,5.05
2022-08-10T07:03:38.345Z,5.30
2022-08-10T07:06:07.702Z,5.03
2022-08-10T07:08:37.576Z,4.55
2022-08-10T07:11:11.469Z,4.38
2022-08-10T07:14:16.732Z,4.10
2022-08-10T07:16:29.977Z,4.88
2022-08-10T07:19:00.354Z,4.25
2022-08-10T07:21:31.171Z,4.10
2022-08-10T07:24:01.135Z,4.72
2022-08-10T07:26:30.951Z,4.38
2022-08-10T07:29:00.592Z,4.18
2022-08-10T07:31:36.010Z,4.60
2022-08-10T07:34:28.547Z,4.25
2022-08-10T07:37:03.081Z,3.90
2022-08-10T07:40:01.880Z,4.03
2022-08-10T07:42:25.505Z,3.47
2022-08-10T07:44:53.161Z,4.20
2022-08-10T07:47:46.114Z,4.25
2022-08-10T07:50:21.468Z,3.10
2022-08-10T07:52:50.543Z,3.72
2022-08-10T07:56:05.007Z,3.28
2022-08-10T07:58:10.101Z,2.88
2022-08-10T08:00:37.496Z,2.90
2022-08-10T08:03:07.567Z,3.45
2022-08-10T08:05:58.101Z,1.92
2022-08-10T08:08:28.287Z,2.60
2022-08-10T08:10:59.561Z,2.72
2022-08-10T08:13:27.358Z,2.60
2022-08-10T08:16:18.399Z,2.13
2022-08-10T08:19:03.988Z,2.28
2022-08-10T08:24:08.725Z,2.03
2022-08-10T08:24:33.573Z,2.22
2022-08-10T08:27:05.745Z,2.25
2022-08-10T08:29:39.074Z,2.15
2022-08-10T08:32:06.905Z,1.95
2022-08-10T08:34:39.454Z,1.90
2022-08-10T08:37:09.602Z,1.92
2022-08-10T08:39:37.569Z,2.17
2022-08-10T08:42:14.461Z,2.20
2022-08-10T08:44:53.900Z,1.88
2022-08-10T08:48:04.798Z,1.80
2022-08-10T08:51:10.921Z,1.52
2022-08-10T08:54:07.726Z,1.55
2022-08-10T08:56:49.571Z,1.83
2022-08-10T08:59:56.207Z,1.67
2022-08-10T09:02:54.694Z,1.58
2022-08-10T09:05:58.692Z,2.10
2022-08-10T09:08:43.725Z,1.33
2022-08-10T09:11:37.164Z,1.73
2022-08-10T09:14:25.479Z,1.17
2022-08-10T09:17:10.139Z,2.08
2022-08-10T09:19:48.712Z,1.48
2022-08-10T09:22:22.582Z,1.85
2022-08-10T09:25:22.528Z,1.60
2022-08-10T09:28:08.196Z,1.27
2022-08-10T09:30:52.404Z,1.60
2022-08-10T09:36:24.606Z,1.38
2022-08-10T09:37:04.527Z,1.80
2022-08-10T09:40:56.143Z,1.05
2022-08-10T09:43:23.560Z,1.20
2022-08-10T09:46:06.863Z,1.00
2022-08-10T09:48:57.289Z,1.20
2022-08-10T09:51:45.466Z,1.45
2022-08-10T09:54:53.483Z,1.10
2022-08-10T09:57:44.815Z,1.40
2022-08-10T10:00:20.487Z,1.33
2022-08-10T10:03:00.183Z,1.27
2022-08-10T10:05:34.580Z,0.95
2022-08-10T10:08:07.554Z,1.40
2022-08-10T10:11:02.634Z,0.90
2022-08-10T10:14:03.887Z,1.35
2022-08-10T10:17:03.669Z,1.30
2022-08-10T10:19:41.136Z,1.05
2022-08-10T10:22:41.717Z,0.90
2022-08-10T10:25:51.530Z,1.45
2022-08-10T10:31:42.001Z,0.90
2022-08-10T10:34:17.801Z,1.15
2022-08-10T10:36:46.843Z,0.85
2022-08-10T10:39:18.465Z,1.23
2022-08-10T10:42:03.528Z,1.10
2022-08-10T10:45:00.363Z,0.75
2022-08-10T10:47:37.954Z,0.90
2022-08-10T10:50:34.468Z,1.02
2022-08-10T10:53:28.163Z,0.77
2022-08-10T10:56:16.725Z,0.82
2022-08-10T10:59:54.431Z,0.73
2022-08-10T11:02:29.097Z,0.60
2022-08-10T11:05:21.593Z,0.77
2022-08-10T11:08:07.234Z,0.70
2022-08-10T11:10:47.494Z,0.52
2022-08-10T11:14:24.551Z,0.60
2022-08-10T11:17:00.240Z,0.68
2022-08-10T11:20:00.130Z,0.60
2022-08-10T11:22:44.704Z,0.82
2022-08-10T11:25:29.733Z,0.68
2022-08-10T11:28:16.925Z,0.70
2022-08-10T11:30:58.456Z,1.10
2022-08-10T11:34:04.061Z,0.70
2022-08-10T11:36:49.784Z,0.80
2022-08-10T11:39:36.884Z,0.40
2022-08-10T11:42:33.244Z,0.63
2022-08-10T11:45:10.195Z,0.75
2022-08-10T11:47:44.868Z,0.70
2022-08-10T11:50:25.599Z,0.80
2022-08-10T11:53:25.610Z,1.00
2022-08-10T11:56:04.616Z,0.75
2022-08-10T11:59:01.438Z,0.73
2022-08-10T12:01:45.607Z,0.82
2022-08-10T12:04:14.890Z,0.80
2022-08-10T12:06:58.777Z,0.70
2022-08-10T12:10:10.529Z,0.60
2022-08-10T12:12:17.119Z,0.60
2022-08-10T12:14:57.363Z,0.65
2022-08-10T12:17:27.011Z,0.82
2022-08-10T12:20:22.883Z,0.98
2022-08-10T12:23:02.467Z,1.17
2022-08-10T12:26:07.462Z,0.80
2022-08-10T12:28:50.616Z,0.68
2022-08-10T12:31:27.007Z,0.70
2022-08-10T12:34:06.500Z,0.75
2022-08-10T12:36:42.179Z,0.80
2022-08-10T12:39:23.545Z,0.70
2022-08-10T12:42:34.903Z,0.98
2022-08-10T12:45:16.328Z,0.90
2022-08-10T12:48:11.760Z,0.80
2022-08-10T12:50:57.437Z,1.25
2022-08-10T12:53:57.536Z,1.00
2022-08-10T12:56:31.316Z,0.93
2022-08-10T12:59:01.610Z,1.13
2022-08-10T13:02:07.584Z,0.77
2022-08-10T13:04:35.864Z,0.80
2022-08-10T13:07:06.360Z,1.02
2022-08-10T13:09:56.244Z,1.10
2022-08-10T13:12:44.252Z,0.90
2022-08-10T13:15:28.180Z,1.00
2022-08-10T13:18:18.306Z,1.15
2022-08-10T13:20:53.112Z,0.90
2022-08-10T13:23:28.991Z,0.70
2022-08-10T13:25:59.065Z,1.33
2022-08-10T13:28:35.606Z,0.75
2022-08-10T13:31:06.640Z,1.25
2022-08-10T13:34:39.631Z,0.90
2022-08-10T13:36:26.854Z,1.17
2022-08-10T13:38:57.262Z,0.98
2022-08-10T13:41:28.112Z,0.88
2022-08-10T13:43:57.267Z,0.80
2022-08-10T13:46:24.060Z,0.65
2022-08-10T13:48:53.394Z,1.45
2022-08-10T13:51:56.954Z,1.52
2022-08-10T13:54:19.839Z,0.82
2022-08-10T13:56:47.318Z,1.00
2022-08-10T13:59:16.074Z,1.02
2022-08-10T14:01:48.245Z,1.25
2022-08-10T14:04:15.328Z,0.65
2022-08-10T14:06:48.462Z,0.70
2022-08-10T14:09:17.734Z,0.70
2022-08-10T14:11:48.466Z,0.65
2022-08-10T14:14:16.935Z,1.20
2022-08-10T14:16:44.799Z,0.80
2022-08-10T14:19:13.289Z,1.20
2022-08-10T14:21:40.995Z,0.70
2022-08-10T14:24:19.195Z,0.80
2022-08-10T14:26:46.971Z,0.70
2022-08-10T14:29:19.600Z,1.08
2022-08-10T14:32:01.940Z,0.60
2022-08-10T14:36:08.353Z,0.60
2022-08-10T14:37:20.149Z,0.50
2022-08-10T14:40:17.321Z,0.90
2022-08-10T14:42:45.775Z,0.73
